Hardwick, MA

7:27 PM EST on March 04, 2015 (GMT -0500)
Worcester Regional | Change Station
CLOSE
Current Station
Airport
Location: Worcester,
Elevation: 1007 ft
Nearby Weather Stations

Elev 1007 ft 42.27 °N, 71.87 °W | Updated 33 minutes ago

Mostly Cloudy
Mostly Cloudy
36 °F
Feels Like 29 °F
N
9
Wind Variable Wind from West

Today
High -- | Low -- °F
--% Chance of Precip.
Yesterday
High -- | Low -- °F
Precip. -- in
6:19 AM 5:41 PM
Full, 100% visible
Pressure 29.83 in
Visibility 10.0 miles
Clouds Clear
Windchill 29 °F
Dew Point 27 °F
Humidity 70%
Rainfall 0.12 in
Snow Depth Not available.
UV 0 out of 12
Pollen .90 out of 12
Air Quality Not available.
Flu Activity Not available.
METAR KORH 042354Z 27008KT 10SM CLR 02/M03 A2980 RMK AO2 SLP101 T00221028 10033 20022 53012

More Conditions Fewer Conditions

Pressure 29.83 in
Visibility 10.0 miles
Clouds Clear
Windchill 29 °F
Dew Point 27 °F
Humidity 70%
Rainfall 0.12 in
Snow Depth Not available.
UV 0 out of 12
Pollen .90 out of 12
Air Quality Not available.
Flu Activity Not available.
METAR KORH 042354Z 27008KT 10SM CLR 02/M03 A2980 RMK AO2 SLP101 T00221028 10033 20022 53012

More Conditions Fewer Conditions

10-Day Weather Forecast

Almanac

Astronomy

Mar. 04, 2015 Rise Set
Actual Time
Civil Twilight
Nautical Twilight
Astronomical Twilight
Moon
Length of Visible Light
Length of Day
Tomorrow will be .
, % of the Moon is Illuminated

Today's Extremes

State Highs State Lows

Community

WunderPhotos

Upload Photos

1,802,606 photos uploaded!

WunderBlogs® & News

Nearby

Air Quality

  Air Quality AQ Index Pollutant
Not available.

Snow Depth

Station Depth Elevation

Earthquake Activity

City Distance Mag. Time & Date
Minimum magnitude displayed is 2.5.

Coastal Water Temperatures

Place Temperature

Nearby Weather Stations